Tiempo atmosférico en la estación meteorológica de Fresno De Sayago, Zamora (804 m.)



Fecha
DESCASC
Temp. máxima en grados centígrados (hora)
DESCASC
Temp. mínima en grados centígrados (hora)
DESCASC
Temp. media en grados centígrados
DESCASC
Racha de viento máxima en m/sg (hora)
DESCASC
Velocidad máxima media en intervalos de 10 minutos(hora)
DESCASC
Precipitaciones diarias en mm
DESCASC
Precipitaciones de 00:00 a 06:00 en mm
DESCASC
Precipitaciones de 06:00 a 12:00 en mm
DESCASC
Precipitaciones de 12:00 a 18:00 en mm
DESCASC
Precipitaciones de 18:00 a 24:00 en mm
DESCASC
22-11-2020 17 (16:20) -1.1 (08:40) 7.9 6.39 (12:40) 4.17 (12:40) 0 0 0 0 0
21-11-2020 13.5 (16:40) 0.1 (07:30) 6.8 8.89 (11:40) 6.94 (11:30) 0 0 0 0 0
20-11-2020 11.4 (16:10) 2.8 (08:20) 7.1 11.67 (15:40) 8.06 (11:40) 0 0 0 0 0
19-11-2020 18.9 (15:20) 4.8 (00:00) 11.8 6.94 (08:10) 5.28 (08:10) 0 0 0 0 0
18-11-2020 19.9 (14:10) 4.2 (00:00) 12 5.28 (05:40) 3.61 (13:20) 0 0 0 0 0
17-11-2020 13.1 (16:40) 3 (00:00) 8.1 6.39 (07:40) 5 (08:00) 0 0 0 0 0
16-11-2020 18.6 (16:10) 6.4 (00:00) 12.5 9.17 (02:40) 4.72 (00:10) 0 0 0 0 0
15-11-2020 16.5 (14:40) 11.1 (00:00) 13.8 14.72 (19:40) 10.83 (15:00) 5 4.6 0.2 0 0.2
14-11-2020 14.8 (15:00) 2.4 (00:00) 8.6 10.83 (14:40) 7.22 (14:20) 0 0 0 0 0
13-11-2020 13.7 (16:00) 4 (00:00) 8.8 5 (12:40) 3.61 (18:30) 0 0 0 0 0
12-11-2020 10.1 (15:00) 2.9 (00:00) 6.5 7.22 (12:40) 5 (13:20) 0 0 0 0 0
11-11-2020 12.6 (15:20) 4.7 (00:00) 8.7 5 (01:40) 3.89 (02:20) 0 0 0 0 0
10-11-2020 9.5 (15:50) 3.8 (00:00) 6.6 6.67 (17:40) 4.17 (19:00) 0 0 0 0 0
09-11-2020 14.6 (16:30) 4 (00:00) 9.3 6.67 (12:30) 4.72 (13:40) 1.2 1.2 0 0 0
08-11-2020 13.1 (11:50) 7.9 (00:00) 10.5 13.61 (15:10) 9.17 (15:10) 19.2 0 0 8.8 10.4
07-11-2020 15 (15:10) 8.6 (00:00) 11.8 15 (15:40) 8.33 (15:50) 3 2.6 0.2 0.2 0
06-11-2020 19.1 (15:10) 8.1 (00:00) 13.6 20 (20:40) 11.11 (12:30) 2.6 2.2 0 0 0.4
05-11-2020 12.6 (16:40) 4.9 (00:00) 8.8 17.5 (10:40) 10.56 (10:00) 3 0 0.2 1 1.8
04-11-2020 9.6 (14:30) 2.2 (00:00) 5.9 20.28 (16:40) 12.22 (16:40) 0.8 0 0 0.2 0.6
03-11-2020 14.3 (15:00) 4.2 (00:00) 9.3 14.72 (10:40) 9.44 (10:20) 0 0 0 0 0
02-11-2020 19 (14:50) 10.7 (00:00) 14.8 6.94 (10:40) 5 (15:50) 0 0 0 0 0
01-11-2020 18.3 (13:00) 7.5 (00:00) 12.9 7.5 (15:40) 5 (14:10) 0 0 0 0 0
31-10-2020 19 (16:30) 5.3 (00:00) 12.2 7.5 (14:40) 5.28 (14:30) 0 0 0 0 0
30-10-2020 21.4 (15:10) 2.9 (00:00) 12.1 5.28 (15:40) 3.89 (02:50) 0 0 0 0 0
29-10-2020 17.9 (18:00) 2.5 (00:00) 10.2 7.78 (21:40) 3.89 (21:00) 0 0 0 0 0
28-10-2020 13.9 (17:40) 5 (00:00) 9.4 10.28 (02:40) 6.67 (00:20) 0.6 0.4 0.2 0 0
27-10-2020 11.5 (14:10) 4.8 (00:00) 8.2 13.61 (11:40) 8.61 (15:10) 0.6 0 0 0.4 0.2

Gráficas

Temp. máximas Temp. mínimas Temp. medias Precipitaciones Rachas de viento máximas Velocidades máximas media en intervalos de 10 minutos

Datos horarios

Fecha y hora oficial Temperatura (ºC) Velocidad del viento (km/h) Dirección del viento Racha (km/h) Dirección de racha Precipitación (mm) Presión (hPa) Tendencia (hPa) Humedad (%)
2020-11-25 23:00:00 8 6 Este 16 Sudeste 0 -- -- 92
2020-11-25 22:00:00 8.1 8 Sudeste 16 Este 0 -- -- 91
2020-11-25 21:00:00 7.4 6 Este 11 Este 0.2 -- -- 100
2020-11-25 20:00:00 6.4 10 Nordeste 20 Nordeste 0 -- -- 100
2020-11-25 19:00:00 6.3 15 Nordeste 26 Nordeste 0.2 -- -- 100
2020-11-25 18:00:00 6.3 17 Nordeste 26 Nordeste 0 -- -- 99
2020-11-25 17:00:00 7.3 18 Este 24 Nordeste 0.2 -- -- 98
2020-11-25 16:00:00 7.6 11 Este 22 Este 0.2 -- -- 92
2020-11-25 15:00:00 7.8 10 Este 15 Sudeste 0 -- -- 94
2020-11-25 14:00:00 8.1 9 Sudeste 19 Sudeste 0.8 -- -- 94
2020-11-25 13:00:00 7.9 10 Sudeste 15 Sudeste 0.6 -- -- 94
2020-11-25 12:00:00 7.8 7 Sudeste 14 Nordeste 0.6 -- -- 99
2020-11-25 11:00:00 6.6 9 Nordeste 15 Este 0.2 -- -- 100
2020-11-25 10:00:00 5.7 11 Este 14 Nordeste 0 -- -- 99
2020-11-25 09:00:00 5.9 8 Este 10 Este 1 -- -- 98
2020-11-25 08:00:00 5.3 2 Este 9 Sudeste 0.2 -- -- 97
2020-11-25 07:00:00 5 6 Sudeste 10 Sur 0 -- -- 97
2020-11-25 06:00:00 4 5 Sur 11 Sudeste 0 -- -- 99
2020-11-25 05:00:00 3.2 5 Sur 9 Sudeste 0 -- -- 99
2020-11-25 04:00:00 2.6 8 Sudeste 10 Sudeste 0 -- -- 100
2020-11-25 03:00:00 2.9 7 Sur 13 Sur 0 -- -- 98
2020-11-25 02:00:00 3.1 9 Sudoeste 13 Sudoeste 0 -- -- 100
2020-11-25 01:00:00 3.8 9 Sudoeste 15 Sur 0 -- -- 99
2020-11-25 00:00:00 5.3 14 Sur 21 Sur 0 -- -- 93
2020-11-24 23:00:00 4.3 9 Sur 15 Sur 0 -- -- 93
2020-11-24 22:00:00 5.2 11 Sur 18 Sur 0 -- -- 91
2020-11-24 21:00:00 5.5 12 Sudoeste 22 Sur 0 -- -- 88
2020-11-24 20:00:00 7.6 18 Sudoeste 24 Sudoeste 0 -- -- 87
2020-11-24 19:00:00 5.9 5 Sur 10 Sur 0 -- -- 93
2020-11-24 18:00:00 8.6 7 Sudoeste 15 Sudoeste 0 -- -- 82
2020-11-24 17:00:00 11.5 11 Oeste 26 Sudoeste 0 -- -- 74
2020-11-24 16:00:00 11.9 18 Sudoeste 31 Sudoeste 0 -- -- 72
2020-11-24 15:00:00 11.4 14 Oeste 27 Oeste 0 -- -- 73
2020-11-24 14:00:00 11.2 16 Sudoeste 27 Oeste 0 -- -- 76
2020-11-24 13:00:00 11 19 Oeste 32 Sudoeste 0 -- -- 76
2020-11-24 12:00:00 10.1 14 Sudoeste 22 Sudoeste 0 -- -- 80
2020-11-24 11:00:00 7.3 14 Sudoeste 19 Sudoeste 0 -- -- 86
2020-11-24 10:00:00 4.8 7 Sudoeste 9 Sudoeste 0 -- -- 95
2020-11-24 09:00:00 1.1 3 Sur 9 Sur 0 -- -- 100
2020-11-24 08:00:00 0.8 4 Sur 5 Sur 0 -- -- 99
2020-11-24 07:00:00 0.8 0 Calma 6 Sur 0 -- -- 98
2020-11-24 06:00:00 1.9 4 Sur 5 Sur 0 -- -- 97
2020-11-24 05:00:00 1.6 2 Sur 6 Sur 0 -- -- 91
2020-11-24 04:00:00 2.2 3 Sur 6 Sur 0 -- -- 84
2020-11-24 03:00:00 1.3 4 Sur 8 Sur 0 -- -- 90
2020-11-24 02:00:00 0.6 5 Sur 7 Sur 0 -- -- 95
2020-11-24 01:00:00 0.9 3 Sudeste 6 Sudeste 0 -- -- 86
2020-11-24 00:00:00 2.9 4 Nordeste 5 Nordeste 0 -- -- 81
2020-11-23 23:00:00 2.6 5 Nordeste 7 Este 0 -- -- 86
2020-11-23 22:00:00 2.5 3 Este 6 Sudeste 0 -- -- 96
2020-11-23 21:00:00 2.3 3 Este 8 Este 0 -- -- 92
2020-11-23 20:00:00 3.3 8 Este 11 Este 0 -- -- 91
2020-11-23 19:00:00 6 5 Nordeste 14 Nordeste 0 -- -- 85
2020-11-23 18:00:00 8.4 9 Nordeste 10 Nordeste 0 -- -- 72
2020-11-23 17:00:00 11.2 8 Nordeste 14 Nordeste 0 -- -- 65
2020-11-23 16:00:00 13.7 10 Este 18 Este 0 -- -- 54
2020-11-23 15:00:00 13.2 12 Nordeste 22 Nordeste 0 -- -- 52
2020-11-23 14:00:00 12.5 15 Nordeste 21 Nordeste 0 -- -- 62
2020-11-23 13:00:00 11.6 15 Nordeste 19 Nordeste 0 -- -- 64
2020-11-23 12:00:00 9.6 12 Nordeste 20 Este 0 -- -- 75
2020-11-23 11:00:00 6 12 Nordeste 22 Este 0 -- -- 87
2020-11-23 10:00:00 3.1 16 Nordeste 23 Nordeste 0 -- -- 99
2020-11-23 09:00:00 1 15 Nordeste 22 Nordeste 0 -- -- 100
2020-11-23 08:00:00 0.1 12 Nordeste 16 Nordeste 0 -- -- 100
2020-11-23 07:00:00 0.5 12 Nordeste 22 Nordeste 0 -- -- 100
2020-11-23 06:00:00 1.5 17 Nordeste 26 Nordeste 0 -- -- 100
2020-11-23 05:00:00 1.6 9 Nordeste 12 Nordeste 0 -- -- 100
2020-11-23 04:00:00 1.6 9 Nordeste 13 Nordeste 0 -- -- 99
2020-11-23 03:00:00 1 11 Nordeste 12 Nordeste 0 -- -- 98
2020-11-23 02:00:00 1.2 0 Calma 3 Este 0 -- -- 97
2020-11-23 01:00:00 1.1 0 Calma 4 Sudeste 0 -- -- 94
2020-11-23 00:00:00 2.6 2 Sudeste 4 Sudeste 0 -- -- 97
2020-11-22 23:00:00 3 0 Calma 6 Sudeste 0 -- -- 92
2020-11-22 22:00:00 2.5 2 Este 7 Sudeste 0 -- -- 95
2020-11-22 21:00:00 4.1 2 Sudeste 3 Oeste 0 -- -- 92
2020-11-22 20:00:00 5.1 3 Sur 4 Sudeste 0 -- -- 90
2020-11-22 19:00:00 7.5 3 Norte 6 Noroeste 0 -- -- 78
2020-11-22 18:00:00 12.3 6 Noroeste 9 Oeste 0 -- -- 60
2020-11-22 17:00:00 16.2 6 Oeste 10 Oeste 0 -- -- 51
2020-11-22 16:00:00 16.7 6 Oeste 15 Sudoeste 0 -- -- 47
2020-11-22 15:00:00 16.1 8 Sudoeste 15 Sudoeste 0 -- -- 53
2020-11-22 14:00:00 14.9 10 Sudoeste 20 Oeste 0 -- -- 55
2020-11-22 13:00:00 14.3 10 Sudoeste 23 Oeste 0 -- -- 56
2020-11-22 12:00:00 14.4 4 Sudoeste 7 Oeste 0 -- -- 54
2020-11-22 11:00:00 11 5 Este 8 Nordeste 0 -- -- 64
2020-11-22 10:00:00 8.7 0 Calma 6 Nordeste 0 -- -- 73
2020-11-22 09:00:00 0 5 Este 6 Nordeste 0 -- -- 95
2020-11-22 08:00:00 -0.7 0 Calma 5 Este 0 -- -- 95
2020-11-22 07:00:00 0.5 6 Este 9 Nordeste 0 -- -- 89
2020-11-22 06:00:00 -0.5 4 Nordeste 5 Nordeste 0 -- -- 88
2020-11-22 05:00:00 1.1 4 Sur 5 Sur 0 -- -- 86
2020-11-22 04:00:00 1.4 4 Sur 7 Sur 0 -- -- 87
2020-11-22 03:00:00 0.6 4 Sudeste 5 Sudeste 0 -- -- 87
2020-11-22 02:00:00 1.1 3 Sudeste 6 Sudeste 0 -- -- 88
2020-11-22 01:00:00 1.2 3 Este 5 Sudeste 0 -- -- 90
2020-11-22 00:00:00 1.3 4 Sur 4 Sur 0 -- -- 90
2020-11-21 23:00:00 1.7 2 Sur 3 Oeste 0 -- -- 86
2020-11-21 22:00:00 2.2 0 Calma 3 Sudeste 0 -- -- 83
2020-11-21 21:00:00 4 0 Calma 7 Nordeste 0 -- -- 77
2020-11-21 20:00:00 4.9 2 Nordeste 4 Nordeste 0 -- -- 72
2020-11-21 19:00:00 6.6 0 Calma 23 Nordeste 0 -- -- 64
2020-11-21 18:00:00 9.6 9 Este 12 Este 0 -- -- 53
2020-11-21 17:00:00 13.5 8 Nordeste 16 Nordeste 0 -- -- 42
2020-11-21 16:00:00 13.2 11 Nordeste 18 Nordeste 0 -- -- 38
2020-11-21 15:00:00 13.3 10 Nordeste 17 Nordeste 0 -- -- 43
2020-11-21 14:00:00 12.3 10 Nordeste 19 Nordeste 0 -- -- 47
2020-11-21 13:00:00 10.4 15 Nordeste 25 Nordeste 0 -- -- 52
2020-11-21 12:00:00 8.3 21 Nordeste 32 Nordeste 0 -- -- 59
2020-11-21 11:00:00 6.8 20 Nordeste 30 Nordeste 0 -- -- 70
2020-11-21 10:00:00 4.5 19 Nordeste 28 Nordeste 0 -- -- 84
2020-11-21 09:00:00 1.6 15 Nordeste 20 Nordeste 0 -- -- 94
2020-11-21 08:00:00 0.1 12 Nordeste 17 Este 0 -- -- 99
2020-11-21 07:00:00 0.5 11 Nordeste 19 Nordeste 0 -- -- 98
2020-11-21 06:00:00 1.1 15 Nordeste 21 Nordeste 0 -- -- 98
2020-11-21 05:00:00 1.3 17 Nordeste 27 Nordeste 0 -- -- 98
2020-11-21 04:00:00 1.7 21 Nordeste 24 Nordeste 0 -- -- 98
2020-11-21 03:00:00 2.2 20 Nordeste 31 Nordeste 0 -- -- 98
2020-11-21 02:00:00 2 16 Nordeste 26 Nordeste 0 -- -- 98
2020-11-21 01:00:00 2.7 17 Nordeste 26 Nordeste 0 -- -- 96
2020-11-21 00:00:00 3.6 18 Nordeste 27 Nordeste 0 -- -- 93
2020-11-20 23:00:00 4.2 20 Nordeste 32 Nordeste 0 -- -- 92
2020-11-20 22:00:00 4.3 15 Nordeste 22 Nordeste 0 -- -- 91
2020-11-20 21:00:00 5 6 Este 17 Nordeste 0 -- -- 88
2020-11-20 20:00:00 5.7 12 Nordeste 29 Nordeste 0 -- -- 84
2020-11-20 19:00:00 7.3 20 Nordeste 26 Nordeste 0 -- -- 77
2020-11-20 18:00:00 8.3 13 Nordeste 25 Nordeste 0 -- -- 75
2020-11-20 17:00:00 10.9 19 Nordeste 32 Nordeste 0 -- -- 67
2020-11-20 16:00:00 11.3 23 Nordeste 42 Nordeste 0 -- -- 66
2020-11-20 15:00:00 11 24 Nordeste 34 Nordeste 0 -- -- 66
2020-11-20 14:00:00 10.2 23 Nordeste 33 Nordeste 0 -- -- 69
2020-11-20 13:00:00 9.6 20 Nordeste 39 Este 0 -- -- 76
2020-11-20 12:00:00 8.1 28 Nordeste 37 Nordeste 0 -- -- 84
2020-11-20 11:00:00 7 26 Nordeste 33 Nordeste 0 -- -- 87
2020-11-20 10:00:00 6 18 Nordeste 25 Nordeste 0 -- -- 93
2020-11-20 09:00:00 3.7 12 Nordeste 18 Nordeste 0 -- -- 100
2020-11-20 08:00:00 3.2 12 Nordeste 21 Nordeste 0 -- -- 100
2020-11-20 07:00:00 3.5 14 Nordeste 20 Este 0 -- -- 100
2020-11-20 06:00:00 4 17 Nordeste 22 Nordeste 0 -- -- 100
2020-11-20 05:00:00 4 13 Nordeste 17 Nordeste 0 -- -- 100
2020-11-20 04:00:00 5.5 15 Nordeste 19 Nordeste 0 -- -- 100
2020-11-20 03:00:00 5.8 15 Nordeste 26 Nordeste 0 -- -- 100
2020-11-20 02:00:00 6.6 17 Nordeste 32 Nordeste 0 -- -- 100
2020-11-20 01:00:00 6.8 22 Nordeste 29 Nordeste 0 -- -- 100
2020-11-20 00:00:00 6.8 15 Nordeste 20 Nordeste 0 -- -- 100
2020-11-19 23:00:00 8.8 16 Nordeste 23 Nordeste 0 -- -- 100
2020-11-19 22:00:00 6.1 10 Nordeste 14 Nordeste 0 -- -- 100
2020-11-19 21:00:00 8.7 11 Nordeste 14 Nordeste 0 -- -- 100
2020-11-19 20:00:00 7.9 11 Nordeste 20 Nordeste 0 -- -- 98
2020-11-19 19:00:00 9.4 9 Nordeste 15 Nordeste 0 -- -- 96
2020-11-19 18:00:00 11.6 12 Nordeste 16 Nordeste 0 -- -- 86
2020-11-19 17:00:00 16.5 13 Nordeste 17 Nordeste 0 -- -- 69
2020-11-19 16:00:00 18.5 9 Este 14 Este 0 -- -- 63
2020-11-19 15:00:00 17.9 10 Este 19 Nordeste 0 -- -- 68
2020-11-19 14:00:00 15.6 15 Nordeste 23 Nordeste 0 -- -- 80
2020-11-19 13:00:00 14.2 13 Nordeste 17 Nordeste 0 -- -- 98
2020-11-19 12:00:00 10.2 12 Nordeste 22 Este 0 -- -- 100
2020-11-19 11:00:00 8.5 11 Este 23 Nordeste 0 -- -- 100
2020-11-19 10:00:00 7 18 Nordeste 23 Nordeste 0 -- -- 100
2020-11-19 09:00:00 6.5 10 Este 25 Nordeste 0 -- -- 100
2020-11-19 08:00:00 6.5 18 Nordeste 24 Nordeste 0 -- -- 100
2020-11-19 07:00:00 5.7 13 Nordeste 18 Nordeste 0 -- -- 100
2020-11-19 06:00:00 5.7 7 Nordeste 12 Nordeste 0 -- -- 100
2020-11-19 05:00:00 7.1 12 Nordeste 19 Nordeste 0 -- -- 100
2020-11-19 04:00:00 7.5 15 Nordeste 22 Nordeste 0 -- -- 100
2020-11-19 03:00:00 8.1 17 Nordeste 20 Nordeste 0 -- -- 100
2020-11-19 02:00:00 8.7 16 Este 24 Nordeste 0 -- -- 100
2020-11-19 01:00:00 8.1 14 Nordeste 15 Nordeste 0 -- -- 100
2020-11-19 00:00:00 8.7 4 Nordeste 6 Nordeste 0 -- -- 99
2020-11-18 23:00:00 9.9 4 Nordeste 10 Nordeste 0 -- -- 99
2020-11-18 22:00:00 10.6 6 Nordeste 10 Nordeste 0 -- -- 97
2020-11-18 21:00:00 10.5 9 Nordeste 11 Nordeste 0 -- -- 96
2020-11-18 20:00:00 11.5 9 Nordeste 13 Nordeste 0 -- -- 95
2020-11-18 19:00:00 11.6 8 Nordeste 12 Nordeste 0 -- -- 93
2020-11-18 18:00:00 13.1 8 Nordeste 10 Nordeste 0 -- -- 84
2020-11-18 17:00:00 15.1 8 Nordeste 10 Nordeste 0 -- -- 78
2020-11-18 16:00:00 18.5 6 Este 13 Nordeste 0 -- -- 64
2020-11-18 15:00:00 18.3 9 Nordeste 13 Nordeste 0 -- -- 67
2020-11-18 14:00:00 19.4 7 Sudoeste 19 Sudoeste 0 -- -- 52
2020-11-18 13:00:00 18.9 12 Sudoeste 17 Sudoeste 0 -- -- 53
2020-11-18 12:00:00 18.9 4 Sur 8 Sur 0 -- -- 55
2020-11-18 11:00:00 15 5 Nordeste 7 Nordeste 0 -- -- 79
2020-11-18 10:00:00 12.4 0 Calma 12 Nordeste 0 -- -- 92
2020-11-18 09:00:00 5.5 8 Nordeste 9 Nordeste 0 -- -- 100
2020-11-18 08:00:00 4.3 6 Este 8 Este 0 -- -- 99
2020-11-18 07:00:00 5.8 5 Sur 8 Sudeste 0 -- -- 98
2020-11-18 06:00:00 6.6 8 Sur 19 Sudoeste 0 -- -- 94
2020-11-18 05:00:00 7.1 9 Sudoeste 10 Sudoeste 0 -- -- 96
2020-11-18 04:00:00 6.6 2 Sur 8 Sudoeste 0 -- -- 98
2020-11-18 03:00:00 7.4 8 Sur 11 Sur 0 -- -- 91
2020-11-18 02:00:00 7.1 6 Sudoeste 13 Sudoeste 0 -- -- 92
2020-11-18 01:00:00 5.7 11 Sudoeste 14 Sudoeste 0 -- -- 97
2020-11-18 00:00:00 6.8 0 Calma 2 Sudoeste 0 -- -- 100
2020-11-17 23:00:00 6.9 0 Calma 2 Sur 0 -- -- 100
2020-11-17 22:00:00 7.2 0 Calma 2 Sur 0 -- -- 100
2020-11-17 21:00:00 7 0 Calma 5 Sur 0 -- -- 100
2020-11-17 20:00:00 6.5 4 Sudeste 9 Nordeste 0 -- -- 100
2020-11-17 19:00:00 7.4 10 Nordeste 15 Nordeste 0 -- -- 100
2020-11-17 18:00:00 9.1 13 Nordeste 16 Nordeste 0 -- -- 98
2020-11-17 17:00:00 12.9 10 Nordeste 16 Nordeste 0 -- -- 86
2020-11-17 16:00:00 12.7 12 Nordeste 17 Nordeste 0 -- -- 89
2020-11-17 15:00:00 11.9 14 Nordeste 18 Nordeste 0 -- -- 98
2020-11-17 14:00:00 10.2 15 Nordeste 19 Nordeste 0 -- -- 100
2020-11-17 13:00:00 8.4 10 Nordeste 19 Nordeste 0 -- -- 100
2020-11-17 12:00:00 7.4 13 Nordeste 20 Nordeste 0 -- -- 100
2020-11-17 11:00:00 6.2 17 Nordeste 22 Nordeste 0 -- -- 100
2020-11-17 10:00:00 5.2 14 Nordeste 20 Nordeste 0 -- -- 100
2020-11-17 09:00:00 4.3 14 Este 21 Este 0 -- -- 100
2020-11-17 08:00:00 3.9 18 Nordeste 23 Nordeste 0 -- -- 100
2020-11-17 07:00:00 4.3 18 Nordeste 21 Nordeste 0 -- -- 100
2020-11-17 06:00:00 3.6 15 Nordeste 18 Nordeste 0 -- -- 100
2020-11-17 05:00:00 4 13 Nordeste 15 Nordeste 0 -- -- 100
2020-11-17 04:00:00 3.2 10 Nordeste 15 Nordeste 0 -- -- 100
2020-11-17 03:00:00 4.2 8 Nordeste 9 Nordeste 0 -- -- 99
2020-11-17 02:00:00 5.9 4 Nordeste 6 Nordeste 0 -- -- 99
2020-11-17 01:00:00 5.9 6 Este 8 Este 0 -- -- 99
2020-11-17 00:00:00 7.1 5 Nordeste 9 Nordeste 0 -- -- 92
2020-11-16 23:00:00 6.4 8 Nordeste -- -- 0 -- -- 96
2020-11-16 22:00:00 7.4 5 Nordeste 9 Este 0 -- -- 95
2020-11-16 21:00:00 6.8 7 Este 16 Nordeste 0 -- -- 99
2020-11-16 20:00:00 6.9 0 Calma 0 Calma 0 -- -- 96
2020-11-16 19:00:00 9.1 0 Calma 0 Calma 0 -- -- 94
2020-11-16 18:00:00 11.8 0 Calma 0 Calma 0 -- -- 80
2020-11-16 17:00:00 16.3 0 Calma 0 Calma 0 -- -- 63
2020-11-16 16:00:00 18.5 0 Calma 13 Nordeste 0 -- -- 58
2020-11-16 15:00:00 16.6 6 Nordeste 13 Nordeste 0 -- -- 60
2020-11-16 14:00:00 17.3 2 Sudeste 9 Sur 0 -- -- 59
2020-11-16 13:00:00 16.1 3 Sur 9 Sur 0 -- -- 64
2020-11-16 12:00:00 12.9 5 Noroeste 12 Norte 0 -- -- 75
2020-11-16 11:00:00 11.7 6 Noroeste 9 Noroeste 0 -- -- 85
2020-11-16 10:00:00 10.7 2 Sur 4 Sudeste 0 -- -- 100
2020-11-16 09:00:00 9.1 4 Nordeste 12 Oeste 0 -- -- 100
2020-11-16 08:00:00 9.6 9 Oeste 15 Oeste 0 -- -- 100
2020-11-16 07:00:00 10.1 9 Oeste 13 Oeste 0 -- -- 100
2020-11-16 06:00:00 10.8 9 Oeste 15 Oeste 0 -- -- 100
2020-11-16 05:00:00 11.9 12 Oeste 21 Oeste 0 -- -- 98
2020-11-16 04:00:00 12.1 13 Oeste 22 Sudoeste 0 -- -- 99
2020-11-16 03:00:00 12.3 12 Sudoeste 33 Oeste 0 -- -- 99
2020-11-16 02:00:00 12.6 13 Oeste 23 Oeste 0 -- -- 99
2020-11-16 01:00:00 12.8 13 Oeste 31 Oeste 0 -- -- 99
2020-11-16 00:00:00 12.9 16 Oeste 27 Oeste 0 -- -- 99
2020-11-15 23:00:00 13 16 Oeste 31 Oeste 0.2 -- -- 99
2020-11-15 22:00:00 13.2 21 Oeste 38 Sudoeste 0 -- -- 97
2020-11-15 21:00:00 13.9 22 Sudoeste 37 Sudoeste 0 -- -- 92
2020-11-15 20:00:00 13.8 28 Sudoeste 53 Sudoeste 0 -- -- 92
2020-11-15 19:00:00 13.9 23 Sudoeste 33 Sudoeste 0 -- -- 91
2020-11-15 18:00:00 14.3 25 Sudoeste 42 Sudoeste 0 -- -- 89
2020-11-15 17:00:00 15 26 Oeste 45 Sudoeste 0 -- -- 86
2020-11-15 16:00:00 15.5 32 Oeste 47 Oeste 0 -- -- 83
2020-11-15 15:00:00 15.9 39 Sudoeste 53 Sudoeste 0 -- -- 85
2020-11-15 14:00:00 15.7 27 Sudoeste 42 Sudoeste 0 -- -- 85
2020-11-15 13:00:00 15.6 28 Sudoeste 45 Sudoeste 0 -- -- 87
2020-11-15 12:00:00 14.4 32 Sudoeste 45 Sudoeste 0 -- -- 92
2020-11-15 11:00:00 14.1 31 Sudoeste 47 Sudoeste 0 -- -- 93
2020-11-15 10:00:00 13.7 28 Sudoeste 43 Sudoeste 0 -- -- 94
2020-11-15 09:00:00 13.3 29 Sudoeste 42 Sudoeste 0 -- -- 96
2020-11-15 08:00:00 13.1 28 Sudoeste 42 Sudoeste 0.2 -- -- 97
2020-11-15 07:00:00 12.6 24 Sudoeste 41 Sudoeste 0 -- -- 99
2020-11-15 06:00:00 12.2 20 Sudoeste 30 Sudoeste 0 -- -- 99
2020-11-15 05:00:00 11.7 23 Sudoeste 33 Sudoeste 0 -- -- 100
2020-11-15 04:00:00 11.2 13 Sur 34 Sudoeste 4.6 -- -- 100
2020-11-15 03:00:00 11.4 27 Sudoeste 39 Sudoeste 0 -- -- 95
2020-11-15 02:00:00 11.6 21 Sudoeste 28 Sur 0 -- -- 93
2020-11-15 01:00:00 11.5 17 Sudoeste 24 Sudoeste 0 -- -- 93
2020-11-15 00:00:00 11.5 17 Sudoeste 25 Sudoeste 0 -- -- 92
2020-11-14 23:00:00 11.6 20 Sudoeste 27 Sudoeste 0 -- -- 94
2020-11-14 22:00:00 11.2 15 Sudoeste 24 Sudoeste 0 -- -- 97
2020-11-14 21:00:00 11 13 Sudoeste 22 Sudoeste 0 -- -- 96
2020-11-14 20:00:00 12.3 15 Sudoeste 22 Sudoeste 0 -- -- 92
2020-11-14 19:00:00 12.3 14 Sudoeste 22 Sur 0 -- -- 92
2020-11-14 18:00:00 13 18 Sudoeste 31 Sudoeste 0 -- -- 89
2020-11-14 17:00:00 13.9 21 Sudoeste 33 Sudoeste 0 -- -- 86
2020-11-14 16:00:00 14.1 21 Sudoeste 31 Sudoeste 0 -- -- 84
2020-11-14 15:00:00 14.8 20 Sudoeste 39 Sudoeste 0 -- -- 82
2020-11-14 14:00:00 14.4 20 Sudoeste 28 Sudoeste 0 -- -- 84
2020-11-14 13:00:00 12.8 15 Sudoeste 23 Sudoeste 0 -- -- 91
2020-11-14 12:00:00 11.6 3 Sudeste 7 Nordeste 0 -- -- 96
2020-11-14 11:00:00 10 4 Nordeste 8 Noroeste 0 -- -- 100
2020-11-14 10:00:00 8.4 3 Este 6 Nordeste 0 -- -- 100
2020-11-14 09:00:00 6.7 4 Nordeste 11 Nordeste 0 -- -- 100
2020-11-14 08:00:00 5.6 6 Nordeste 14 Nordeste 0 -- -- 100
2020-11-14 07:00:00 4.7 10 Nordeste 13 Nordeste 0 -- -- 100
2020-11-14 06:00:00 3.8 10 Nordeste 14 Nordeste 0 -- -- 100
2020-11-14 05:00:00 2.7 9 Nordeste 12 Nordeste 0 -- -- 100
2020-11-14 04:00:00 3.2 7 Nordeste 13 Nordeste 0 -- -- 100
2020-11-14 03:00:00 4.5 5 Este 6 Este 0 -- -- 100
2020-11-14 02:00:00 6.2 5 Sudeste 7 Sudeste 0 -- -- 100
2020-11-14 01:00:00 6.2 4 Sudeste 6 Sudeste 0 -- -- 100
2020-11-14 00:00:00 6 3 Este 6 Este 0 -- -- 100
2020-11-13 23:00:00 4.4 3 Este 5 Oeste 0 -- -- 100
2020-11-13 22:00:00 4.5 4 Nordeste 18 Sudoeste 0 -- -- 100
2020-11-13 21:00:00 5.8 6 Nordeste 12 Este 0 -- -- 100
2020-11-13 20:00:00 6.4 10 Nordeste 14 Nordeste 0 -- -- 100
2020-11-13 19:00:00 6.9 12 Nordeste 18 Nordeste 0 -- -- 99
2020-11-13 18:00:00 9 10 Nordeste 13 Nordeste 0 -- -- 95
2020-11-13 17:00:00 12.6 9 Este 17 Nordeste 0 -- -- 84
2020-11-13 16:00:00 13.7 9 Nordeste 15 Nordeste 0 -- -- 81
2020-11-13 15:00:00 11.7 5 Norte 10 Norte 0 -- -- 92
2020-11-13 14:00:00 10.7 9 Norte 16 Nordeste 0 -- -- 98
2020-11-13 13:00:00 10.6 13 Nordeste 18 Nordeste 0 -- -- 100
2020-11-13 12:00:00 11.1 10 Nordeste 13 Nordeste 0 -- -- 100
2020-11-13 11:00:00 10.7 6 Este 11 Este 0 -- -- 99
2020-11-13 10:00:00 7.2 9 Este 12 Nordeste 0 -- -- 100
2020-11-13 09:00:00 5.6 8 Nordeste 12 Nordeste 0 -- -- 100
2020-11-13 08:00:00 5.8 10 Nordeste 15 Nordeste 0 -- -- 100
2020-11-13 07:00:00 5.2 6 Nordeste 9 Nordeste 0 -- -- 100
2020-11-13 06:00:00 5.9 8 Este 13 Este 0 -- -- 100
2020-11-13 05:00:00 5.5 10 Nordeste 12 Este 0 -- -- 100
2020-11-13 04:00:00 5 8 Nordeste 10 Nordeste 0 -- -- 100
2020-11-13 03:00:00 5 8 Nordeste 11 Nordeste 0 -- -- 100
2020-11-13 02:00:00 5.1 6 Nordeste 9 Nordeste 0 -- -- 100
2020-11-13 01:00:00 6.8 0 Calma 12 Este 0 -- -- 100
2020-11-13 00:00:00 6.9 9 Nordeste 11 Nordeste 0 -- -- 100
2020-11-12 23:00:00 7.2 5 Este 12 Este 0 -- -- 100
2020-11-12 22:00:00 7.5 9 Nordeste 13 Nordeste 0 -- -- 100
2020-11-12 21:00:00 7.7 12 Nordeste 16 Nordeste 0 -- -- 100
2020-11-12 20:00:00 8 10 Este 17 Nordeste 0 -- -- 100
2020-11-12 19:00:00 8.1 14 Nordeste 17 Nordeste 0 -- -- 100
2020-11-12 18:00:00 8.7 11 Nordeste 19 Nordeste 0 -- -- 99
2020-11-12 17:00:00 9.2 13 Nordeste 22 Nordeste 0 -- -- 97
2020-11-12 16:00:00 9.5 13 Nordeste 18 Nordeste 0 -- -- 98
2020-11-12 15:00:00 10.1 12 Nordeste 23 Nordeste 0 -- -- 99
2020-11-12 14:00:00 9.4 17 Nordeste 23 Nordeste 0 -- -- 100
2020-11-12 13:00:00 10 16 Nordeste 26 Nordeste 0 -- -- 100
2020-11-12 12:00:00 9.1 14 Nordeste 17 Nordeste 0 -- -- 99
2020-11-12 11:00:00 6.5 10 Nordeste 15 Este 0 -- -- 100
2020-11-12 10:00:00 5 10 Nordeste 15 Nordeste 0 -- -- 100
2020-11-12 09:00:00 3.5 9 Nordeste 10 Nordeste 0 -- -- 100
2020-11-12 08:00:00 4.1 6 Nordeste 8 Nordeste 0 -- -- 100
2020-11-12 07:00:00 5.9 2 Este 6 Sudeste 0 -- -- 100
2020-11-12 06:00:00 5.7 3 Sudeste 8 Sur 0 -- -- 100
2020-11-12 05:00:00 6.1 3 Sur 9 Sudeste 0 -- -- 100
2020-11-12 04:00:00 6.6 3 Sudeste 7 Sudeste 0 -- -- 100
2020-11-12 03:00:00 6.8 3 Sur 6 Sudeste 0 -- -- 99
2020-11-12 02:00:00 7.6 5 Sudeste 7 Sudeste 0 -- -- 98
2020-11-12 01:00:00 7.8 4 Sur 7 Sudoeste 0 -- -- 99
2020-11-12 00:00:00 8.3 3 Sudoeste 6 Sudoeste 0 -- -- 98
2020-11-11 23:00:00 8.6 3 Sudeste 7 Sur 0 -- -- 99
2020-11-11 22:00:00 8.5 2 Este 6 Este 0 -- -- 99
2020-11-11 21:00:00 8.5 2 Nordeste 6 Sudeste 0 -- -- 99
2020-11-11 20:00:00 8.6 5 Sudeste 17 Este 0 -- -- 99
2020-11-11 19:00:00 7.8 9 Nordeste 13 Nordeste 0 -- -- 98
2020-11-11 18:00:00 9.3 10 Este 13 Norte 0 -- -- 94
2020-11-11 17:00:00 12.3 3 Nordeste 9 Oeste 0 -- -- 81
2020-11-11 16:00:00 12.4 5 Oeste 10 Sudoeste 0 -- -- 78
2020-11-11 15:00:00 12.3 3 Sur 9 Este 0 -- -- 79
2020-11-11 14:00:00 10.7 5 Nordeste 9 Nordeste 0 -- -- 97
2020-11-11 13:00:00 8.2 6 Norte 10 Este 0 -- -- 100
2020-11-11 12:00:00 7.7 7 Este 17 Este 0 -- -- 100
2020-11-11 11:00:00 6.1 6 Nordeste 12 Este 0 -- -- 100
2020-11-11 10:00:00 5.6 7 Sudeste 13 Este 0 -- -- 100
2020-11-11 09:00:00 4.8 7 Este 13 Este 0 -- -- 100
2020-11-11 08:00:00 4.8 5 Este 14 Sudeste 0 -- -- 100
2020-11-11 07:00:00 5.3 8 Este 15 Este 0 -- -- 100
2020-11-11 06:00:00 5.7 10 Este 17 Este 0 -- -- 100
2020-11-11 05:00:00 5.6 9 Este 14 Este 0 -- -- 100
2020-11-11 04:00:00 5.7 9 Este 15 Este 0 -- -- 100
2020-11-11 03:00:00 5.8 11 Este 18 Este 0 -- -- 100
2020-11-11 02:00:00 5.9 12 Este 18 Este 0 -- -- 100
2020-11-11 01:00:00 6.3 10 Este 15 Sudeste 0 -- -- 100
2020-11-11 00:00:00 6 12 Este 18 Este 0 -- -- 100
2020-11-10 23:00:00 6.3 13 Este 19 Este 0 -- -- 100
2020-11-10 22:00:00 6.6 10 Este 18 Este 0 -- -- 100
2020-11-10 21:00:00 6.7 13 Este 19 Este 0 -- -- 100
2020-11-10 20:00:00 6.9 13 Nordeste 21 Este 0 -- -- 100
2020-11-10 19:00:00 7.1 15 Nordeste 21 Nordeste 0 -- -- 100
2020-11-10 18:00:00 7.6 14 Nordeste 24 Nordeste 0 -- -- 100
2020-11-10 17:00:00 8.7 14 Nordeste 19 Este 0 -- -- 100
2020-11-10 16:00:00 9.2 12 Nordeste 20 Nordeste 0 -- -- 100
2020-11-10 15:00:00 8.7 15 Nordeste 21 Nordeste 0 -- -- 100
2020-11-10 14:00:00 8.9 8 Este 15 Este 0 -- -- 100
2020-11-10 13:00:00 8.2 10 Este 17 Nordeste 0 -- -- 100
2020-11-10 12:00:00 7.6 10 Nordeste 14 Nordeste 0 -- -- 100
2020-11-10 11:00:00 7.1 5 Este 9 Este 0 -- -- 100
2020-11-10 10:00:00 6.2 2 Este 5 Este 0 -- -- 100
2020-11-10 09:00:00 5.2 3 Sudeste 8 Sur 0 -- -- 100
2020-11-10 08:00:00 5.4 6 Sur 9 Sur 0 -- -- 100
2020-11-10 07:00:00 6.2 2 Sur 5 Sur 0 -- -- 100
2020-11-10 06:00:00 6.5 2 Sur 8 Sudoeste 0 -- -- 100
2020-11-10 05:00:00 6.9 6 Sudoeste 12 Oeste 0 -- -- 100
2020-11-10 04:00:00 7.4 5 Sudoeste 8 Sudoeste 0 -- -- 100
2020-11-10 03:00:00 6.6 3 Sur 5 Sur 0 -- -- 100
2020-11-10 02:00:00 5.2 5 Sudeste 6 Sudeste 0 -- -- 100
2020-11-10 01:00:00 5.1 3 Sur 6 Sudeste 0 -- -- 100
2020-11-10 00:00:00 4 4 Sudeste 4 Sudeste 0 -- -- 100
2020-11-09 23:00:00 6.2 3 Sudoeste 7 Sudoeste 0 -- -- 100
2020-11-09 22:00:00 6.6 5 Sudoeste 9 Sudoeste 0 -- -- 100
2020-11-09 21:00:00 8.2 5 Sudoeste 6 Sudoeste 0 -- -- 99
2020-11-09 20:00:00 9.3 3 Sudoeste 5 Sudoeste 0 -- -- 97
2020-11-09 19:00:00 10.2 4 Sudoeste 15 Noroeste 0 -- -- 93
2020-11-09 18:00:00 11.4 7 Oeste 17 Noroeste 0 -- -- 87
2020-11-09 17:00:00 13.7 8 Sudoeste 17 Noroeste 0 -- -- 73
2020-11-09 16:00:00 14.1 8 Sudoeste 22 Sudoeste 0 -- -- 74
2020-11-09 15:00:00 12.2 13 Oeste 21 Oeste 0 -- -- 81
2020-11-09 14:00:00 12.3 13 Oeste 24 Sudoeste 0 -- -- 81
2020-11-09 13:00:00 11.8 14 Sudoeste 24 Sudoeste 0 -- -- 82
2020-11-09 12:00:00 12.1 17 Sudoeste 22 Sudoeste 0 -- -- 87
2020-11-09 11:00:00 10.5 15 Sudoeste 22 Sudoeste 0 -- -- 94
2020-11-09 10:00:00 9.8 17 Sudoeste 22 Sudoeste 0 -- -- 98
2020-11-09 09:00:00 8.5 9 Sudoeste 15 Sur 0 -- -- 100
2020-11-09 08:00:00 9.1 11 Sudoeste 22 Sudoeste 0 -- -- 100
2020-11-09 07:00:00 9.3 13 Sudoeste 18 Sudoeste 0 -- -- 100
2020-11-09 06:00:00 9.5 5 Oeste 13 Sudoeste 0.2 -- -- 100
2020-11-09 05:00:00 9.7 10 Sur 13 Sur 0 -- -- 100
2020-11-09 04:00:00 9.7 5 Sur 10 Sur 1 -- -- 100
2020-11-09 03:00:00 9.8 5 Sudoeste 12 Sur 0 -- -- 99
2020-11-09 02:00:00 9.8 5 Sudoeste 12 Sudoeste 0 -- -- 99
2020-11-09 01:00:00 9.9 9 Sur 21 Sur 0 -- -- 99
2020-11-09 00:00:00 9.6 10 Sur 15 Sur 0 -- -- 100
2020-11-08 23:00:00 9.4 9 Sur 17 Sur 0 -- -- 99
2020-11-08 22:00:00 9.3 8 Sur 19 Sur 0.4 -- -- 100
2020-11-08 21:00:00 9.5 12 Sur 23 Sur 3.4 -- -- 100
2020-11-08 20:00:00 9.6 11 Sur 21 Sur 3 -- -- 99
2020-11-08 19:00:00 10 10 Sur 34 Sur 3.6 -- -- 96
2020-11-08 18:00:00 10.2 17 Sur 30 Oeste 3.2 -- -- 96
2020-11-08 17:00:00 10.1 11 Sur 25 Sur 0 -- -- 96
2020-11-08 16:00:00 9.8 14 Sur 49 Sudoeste 1.8 -- -- 92
2020-11-08 15:00:00 11.4 24 Sur 49 Sudoeste 0.2 -- -- 91
2020-11-08 14:00:00 11.3 22 Sur 39 Sur 1.2 -- -- 91
2020-11-08 13:00:00 11.2 19 Sudoeste 35 Sudoeste 2.4 -- -- 95
2020-11-08 12:00:00 12.4 26 Sudoeste 37 Sudoeste 0 -- -- 85
2020-11-08 11:00:00 12.2 19 Sur 34 Sur 0 -- -- 82
2020-11-08 10:00:00 12.2 15 Sur 28 Sur 0 -- -- 80
2020-11-08 09:00:00 9 7 Sur 14 Sur 0 -- -- 91
2020-11-08 08:00:00 8.3 8 Sur 13 Sudeste 0 -- -- 95
2020-11-08 07:00:00 8.1 2 Sur 12 Sudeste 0 -- -- 96
2020-11-08 06:00:00 8.3 10 Sur 18 Sur 0 -- -- 95
2020-11-08 05:00:00 8.5 14 Sur 20 Sur 0 -- -- 94
2020-11-08 04:00:00 9.5 13 Sur 24 Sur 0 -- -- 90
2020-11-08 03:00:00 8.5 9 Sur 17 Sur 0 -- -- 93
2020-11-08 02:00:00 7.9 5 Sudeste 20 Sur 0 -- -- 94
2020-11-08 01:00:00 9.1 14 Sur 23 Sur 0 -- -- 91
2020-11-08 00:00:00 9.1 16 Sur 27 Sudoeste 0 -- -- 92
2020-11-07 23:00:00 9.6 13 Sur 22 Sur 0 -- -- 90
2020-11-07 22:00:00 9 12 Sur 18 Sur 0 -- -- 90
2020-11-07 21:00:00 9.5 13 Sudoeste 20 Sur 0 -- -- 88
2020-11-07 20:00:00 10.6 16 Sudoeste 30 Sudoeste 0 -- -- 84
2020-11-07 19:00:00 11 21 Sudoeste 28 Sudoeste 0 -- -- 81
2020-11-07 18:00:00 11.9 20 Sudoeste 37 Sudoeste 0 -- -- 79
2020-11-07 17:00:00 12.9 21 Sudoeste 35 Sudoeste 0 -- -- 72
2020-11-07 16:00:00 13.6 28 Sudoeste 54 Sudoeste 0 -- -- 68
2020-11-07 15:00:00 14.6 25 Sudoeste 36 Sudoeste 0.2 -- -- 66
2020-11-07 14:00:00 13.8 18 Sudoeste 31 Sudoeste 0 -- -- 78
2020-11-07 13:00:00 11.3 18 Oeste 33 Sudoeste 0 -- -- 92
2020-11-07 12:00:00 11.7 14 Sudoeste 36 Sudoeste 0 -- -- 87
2020-11-07 11:00:00 11.7 24 Sudoeste 35 Sudoeste 0 -- -- 88
2020-11-07 10:00:00 10.1 17 Sudoeste 23 Sudoeste 0 -- -- 98
2020-11-07 09:00:00 9.2 8 Sudoeste 13 Sur 0 -- -- 100
2020-11-07 08:00:00 9.1 4 Sudoeste 11 Sudoeste 0.2 -- -- 100
2020-11-07 07:00:00 9.1 7 Sudoeste 10 Sudoeste 0 -- -- 99
2020-11-07 06:00:00 9.1 3 Sur 9 Sur 0.2 -- -- 99
2020-11-07 05:00:00 9.7 5 Sudeste 8 Sudeste 0.6 -- -- 98
2020-11-07 04:00:00 9.8 5 Sur 14 Sudeste 0.2 -- -- 97
2020-11-07 03:00:00 9.9 9 Sur 17 Sur 0.2 -- -- 97
2020-11-07 02:00:00 10 7 Sur 15 Sudeste 0.2 -- -- 96
2020-11-07 01:00:00 9.8 3 Este 11 Sudeste 1.2 -- -- 96
2020-11-07 00:00:00 10 5 Norte 13 Sur 0 -- -- 94
2020-11-06 23:00:00 10.2 4 Sur 15 Sur 0 -- -- 92
2020-11-06 22:00:00 9.9 10 Sur 31 Sudoeste 0 -- -- 93
2020-11-06 21:00:00 10.5 35 Sudoeste 72 Sudoeste 0.4 -- -- 89
2020-11-06 20:00:00 14.1 26 Sur 48 Sudeste 0 -- -- 68
2020-11-06 19:00:00 15.7 28 Sur 50 Sur 0 -- -- 57
2020-11-06 18:00:00 16.2 20 Sudeste 31 Sudeste 0 -- -- 64
2020-11-06 17:00:00 16.7 14 Sudeste 30 Sudeste 0 -- -- 67
2020-11-06 16:00:00 17.7 16 Sudeste 31 Sudeste 0 -- -- 61
2020-11-06 15:00:00 18.7 18 Sudeste 39 Sudeste 0 -- -- 62
2020-11-06 14:00:00 15.7 25 Sudeste 51 Este 0 -- -- 73
2020-11-06 13:00:00 15 32 Este 57 Este 0 -- -- 77
2020-11-06 12:00:00 13.6 33 Este 54 Este 0 -- -- 78
2020-11-06 11:00:00 12.8 28 Este 43 Este 0 -- -- 78
2020-11-06 10:00:00 11.7 21 Este 29 Este 0 -- -- 82
2020-11-06 09:00:00 11.6 6 Este 31 Sudeste 0 -- -- 81
2020-11-06 08:00:00 11.4 16 Sudeste 27 Este 0 -- -- 80
2020-11-06 07:00:00 10.2 18 Sudeste 26 Este 0 -- -- 88
2020-11-06 06:00:00 9.6 13 Este 21 Este 0 -- -- 84
2020-11-06 05:00:00 9.3 12 Sudeste 23 Sur 0.2 -- -- 93
2020-11-06 04:00:00 9.8 19 Sur 57 Sudoeste 2 -- -- 92
2020-11-06 03:00:00 11.1 12 Sudeste 26 Este 0 -- -- 87
2020-11-06 02:00:00 10.1 17 Este 26 Este 0 -- -- 94
2020-11-06 01:00:00 9 19 Este 32 Este 0 -- -- 94
2020-11-06 00:00:00 8.1 15 Este 24 Este 0 -- -- 94
2020-11-05 23:00:00 8.8 12 Este 27 Este 0.2 -- -- 95
2020-11-05 22:00:00 9.5 14 Este 31 Este 0 -- -- 95
2020-11-05 21:00:00 10.1 23 Este 31 Este 0.6 -- -- 95
2020-11-05 20:00:00 10.7 15 Sudeste 41 Este 0.6 -- -- 92
2020-11-05 19:00:00 11.3 28 Este 45 Este 0.4 -- -- 89
2020-11-05 18:00:00 11.6 25 Este 43 Este 0.6 -- -- 89
2020-11-05 17:00:00 12.4 27 Este 53 Este 0.2 -- -- 84
2020-11-05 16:00:00 11.3 21 Este 37 Este 0.2 -- -- 90
2020-11-05 15:00:00 11.2 29 Este 46 Este 0 -- -- 84
2020-11-05 14:00:00 10.8 31 Nordeste 41 Este 0 -- -- 85
2020-11-05 13:00:00 10 29 Nordeste 40 Este 0 -- -- 87
2020-11-05 12:00:00 8.9 29 Nordeste 44 Nordeste 0 -- -- 91
2020-11-05 11:00:00 8.3 33 Nordeste 63 Este 0 -- -- 92
2020-11-05 10:00:00 7.8 38 Este 50 Este 0.2 -- -- 93
2020-11-05 09:00:00 7.5 35 Este 51 Este 0 -- -- 92
2020-11-05 08:00:00 7 32 Este 44 Este 0 -- -- 92
2020-11-05 07:00:00 6.3 32 Nordeste 49 Nordeste 0 -- -- 94
2020-11-05 06:00:00 6.4 35 Nordeste 49 Nordeste 0 -- -- 93
2020-11-05 05:00:00 6.3 37 Nordeste 48 Nordeste 0 -- -- 92
2020-11-05 04:00:00 5 26 Nordeste 45 Nordeste 0 -- -- 94
2020-11-05 03:00:00 5.3 34 Nordeste 47 Nordeste 0 -- -- 91
2020-11-05 02:00:00 5.3 31 Nordeste 51 Nordeste 0 -- -- 91
2020-11-05 01:00:00 5.7 33 Nordeste 45 Nordeste 0 -- -- 89
2020-11-05 00:00:00 5.8 32 Nordeste 48 Nordeste 0 -- -- 88
2020-11-04 23:00:00 5.4 40 Nordeste 60 Nordeste 0 -- -- 89
2020-11-04 22:00:00 5.3 33 Nordeste 44 Nordeste 0 -- -- 89
2020-11-04 21:00:00 5.3 34 Nordeste 52 Nordeste 0 -- -- 89
2020-11-04 20:00:00 5.3 40 Nordeste 55 Nordeste 0.2 -- -- 90
2020-11-04 19:00:00 5.4 36 Nordeste 47 Nordeste 0.4 -- -- 90
2020-11-04 18:00:00 6 35 Nordeste 61 Este 0.2 -- -- 85
2020-11-04 17:00:00 8.2 36 Este 73 Este 0 -- -- 69
2020-11-04 16:00:00 8.7 35 Este 53 Este 0 -- -- 65
2020-11-04 15:00:00 8.9 37 Nordeste 50 Nordeste 0 -- -- 64
2020-11-04 14:00:00 8.4 33 Nordeste 49 Nordeste 0 -- -- 69
2020-11-04 13:00:00 7.7 38 Nordeste 53 Nordeste 0 -- -- 69
2020-11-04 12:00:00 8.2 39 Nordeste 55 Nordeste 0 -- -- 68
2020-11-04 11:00:00 6.3 38 Nordeste 67 Nordeste 0 -- -- 76
2020-11-04 10:00:00 4.6 31 Nordeste 40 Nordeste 0 -- -- 86
2020-11-04 09:00:00 3.8 25 Nordeste 35 Nordeste 0 -- -- 89
2020-11-04 08:00:00 3.1 28 Nordeste 36 Nordeste 0 -- -- 91
2020-11-04 07:00:00 2.5 21 Nordeste 34 Nordeste 0 -- -- 95
2020-11-04 06:00:00 2.4 24 Nordeste 41 Nordeste 0 -- -- 95
2020-11-04 05:00:00 2.5 24 Nordeste 32 Nordeste 0 -- -- 95
2020-11-04 04:00:00 2.5 20 Nordeste 36 Nordeste 0 -- -- 96
2020-11-04 03:00:00 2.6 22 Nordeste 31 Nordeste 0 -- -- 96
2020-11-04 02:00:00 3.2 23 Nordeste 35 Nordeste 0 -- -- 93
2020-11-04 01:00:00 3.8 23 Nordeste 29 Nordeste 0 -- -- 91
2020-11-04 00:00:00 4.2 20 Nordeste 26 Nordeste 0 -- -- 90
2020-11-03 23:00:00 4.9 20 Nordeste 27 Nordeste 0 -- -- 88
2020-11-03 22:00:00 5.9 18 Nordeste 33 Nordeste 0 -- -- 85
2020-11-03 21:00:00 7.4 19 Nordeste 24 Nordeste 0 -- -- 83
2020-11-03 20:00:00 6.5 12 Nordeste 17 Nordeste 0 -- -- 84
2020-11-03 19:00:00 8.5 14 Nordeste 20 Nordeste 0 -- -- 75
2020-11-03 18:00:00 11.4 14 Nordeste 31 Nordeste 0 -- -- 62
2020-11-03 17:00:00 12.8 23 Nordeste 35 Nordeste 0 -- -- 58
2020-11-03 16:00:00 13.7 22 Nordeste 39 Nordeste 0 -- -- 58
2020-11-03 15:00:00 14.3 23 Nordeste 37 Nordeste 0 -- -- 54
2020-11-03 14:00:00 13.5 28 Nordeste 50 Este 0 -- -- 58
2020-11-03 13:00:00 12.3 28 Nordeste 46 Este 0 -- -- 63
2020-11-03 12:00:00 11 27 Nordeste 40 Nordeste 0 -- -- 62
2020-11-03 11:00:00 9.2 31 Nordeste 53 Nordeste 0 -- -- 62
2020-11-03 10:00:00 8.7 27 Nordeste 37 Nordeste 0 -- -- 60
2020-11-03 09:00:00 7.6 21 Nordeste 32 Nordeste 0 -- -- 63
2020-11-03 08:00:00 6.8 18 Nordeste 24 Nordeste 0 -- -- 67
2020-11-03 07:00:00 6.9 13 Nordeste 22 Nordeste 0 -- -- 70
2020-11-03 06:00:00 7.8 10 Nordeste 15 Nordeste 0 -- -- 80
2020-11-03 05:00:00 9 5 Noroeste 11 Noroeste 0 -- -- 89
2020-11-03 04:00:00 9.3 5 Oeste 10 Oeste 0 -- -- 93
2020-11-03 03:00:00 10 8 Noroeste 18 Oeste 0 -- -- 91
2020-11-03 02:00:00 11 10 Oeste 23 Oeste 0 -- -- 89
2020-11-03 01:00:00 11.8 16 Oeste 28 Oeste 0 -- -- 92
2020-11-03 00:00:00 13.1 7 Sudoeste 15 Oeste 0 -- -- 97
2020-11-02 23:00:00 13.5 13 Oeste 23 Oeste 0 -- -- 96
2020-11-02 22:00:00 14.2 8 Sudoeste 10 Sudoeste 0 -- -- 93
2020-11-02 21:00:00 13.7 6 Sudoeste 8 Sudoeste 0 -- -- 92
2020-11-02 20:00:00 13.5 6 Sudoeste 10 Sudoeste 0 -- -- 91
2020-11-02 19:00:00 13.9 7 Sudoeste 9 Sudoeste 0 -- -- 89
2020-11-02 18:00:00 15.6 8 Sudoeste 18 Sudoeste 0 -- -- 82
2020-11-02 17:00:00 17.3 11 Oeste 21 Oeste 0 -- -- 74
2020-11-02 16:00:00 17.8 17 Oeste 24 Oeste 0 -- -- 70
2020-11-02 15:00:00 18.8 15 Sudoeste 24 Sudoeste 0 -- -- 65
2020-11-02 14:00:00 18.3 10 Sudoeste 19 Sudoeste 0 -- -- 68
2020-11-02 13:00:00 18.2 11 Sudoeste 21 Oeste 0 -- -- 70
2020-11-02 12:00:00 17.1 13 Sudoeste 24 Oeste 0 -- -- 76
2020-11-02 11:00:00 15.1 17 Oeste 25 Sudoeste 0 -- -- 94
2020-11-02 10:00:00 13.3 15 Sudoeste 19 Sudoeste 0 -- -- 100
2020-11-02 09:00:00 11.7 9 Sudoeste 15 Sudoeste 0 -- -- 100
2020-11-02 08:00:00 10.7 4 Sudoeste 11 Sudoeste 0 -- -- 100
2020-11-02 07:00:00 11.3 9 Sudoeste 17 Sudoeste 0 -- -- 100
2020-11-02 06:00:00 11.4 10 Sudoeste 17 Sudoeste 0 -- -- 100
2020-11-02 05:00:00 11.2 8 Sudoeste 14 Sudoeste 0 -- -- 100
2020-11-02 04:00:00 11.9 7 Sudoeste 19 Oeste 0 -- -- 100
2020-11-02 03:00:00 12.4 13 Oeste 23 Sudoeste 0 -- -- 100
2020-11-02 02:00:00 12.4 10 Sudoeste 18 Sudoeste 0 -- -- 100
2020-11-02 01:00:00 12.4 12 Sudoeste 22 Sudoeste 0 -- -- 100
2020-11-02 00:00:00 12.6 16 Sudoeste 22 Sudoeste 0 -- -- 100
2020-11-01 23:00:00 12.1 7 Sudoeste 13 Sudoeste 0 -- -- 100
2020-11-01 22:00:00 10.9 5 Sudoeste 11 Sudoeste 0 -- -- 99
2020-11-01 21:00:00 12.6 12 Oeste 13 Oeste 0 -- -- 95
2020-11-01 20:00:00 12.8 7 Sudoeste 9 Sudoeste 0 -- -- 95
2020-11-01 19:00:00 14 8 Sudoeste 12 Sudoeste 0 -- -- 91
2020-11-01 18:00:00 15.3 9 Sudoeste 14 Sudoeste 0 -- -- 84
2020-11-01 17:00:00 16 11 Oeste 25 Oeste 0 -- -- 79
2020-11-01 16:00:00 16.5 14 Oeste 27 Oeste 0 -- -- 76
2020-11-01 15:00:00 17.6 15 Sudoeste 25 Oeste 0 -- -- 71
2020-11-01 14:00:00 17.2 16 Oeste 22 Oeste 0 -- -- 73
2020-11-01 13:00:00 18.3 11 Sudoeste 20 Sudoeste 0 -- -- 78
2020-11-01 12:00:00 15.2 8 Sudoeste 13 Sur 0 -- -- 96
2020-11-01 11:00:00 12.5 9 Sudoeste 13 Sur 0 -- -- 100
2020-11-01 10:00:00 11.1 6 Sur 12 Sur 0 -- -- 100
2020-11-01 09:00:00 9.7 8 Sudoeste 10 Sudoeste 0 -- -- 100
2020-11-01 08:00:00 9.5 6 Sur 11 Sur 0 -- -- 100
2020-11-01 07:00:00 9.9 5 Sudoeste 9 Sudoeste 0 -- -- 100
2020-11-01 06:00:00 10.2 7 Sudoeste 10 Sudoeste 0 -- -- 100
2020-11-01 05:00:00 10.1 3 Sudoeste 14 Sur 0 -- -- 100
2020-11-01 04:00:00 9.2 6 Sudoeste 10 Sur 0 -- -- 100
2020-11-01 03:00:00 8.6 4 Sur 6 Sudoeste 0 -- -- 100
2020-11-01 02:00:00 9 5 Sudeste 6 Sudeste 0 -- -- 100
2020-11-01 01:00:00 7.5 4 Sur 6 Sur 0 -- -- 99
2020-11-01 00:00:00 8.5 0 Calma 7 Sudeste 0 -- -- 100
2020-10-31 23:00:00 7.4 3 Sur 4 Sur 0 -- -- 98
2020-10-31 22:00:00 9.1 3 Sudeste 6 Sudeste 0 -- -- 98
2020-10-31 21:00:00 9.2 3 Sudeste 5 Sudeste 0 -- -- 96
2020-10-31 20:00:00 10.4 2 Sudeste 8 Sudeste 0 -- -- 93
2020-10-31 19:00:00 13 3 Noroeste 13 Oeste 0 -- -- 81
2020-10-31 18:00:00 16.7 13 Oeste 22 Oeste 0 -- -- 69
2020-10-31 17:00:00 18.6 14 Oeste 25 Oeste 0 -- -- 62
2020-10-31 16:00:00 18.1 16 Oeste 25 Oeste 0 -- -- 65
2020-10-31 15:00:00 18.8 15 Oeste 27 Oeste 0 -- -- 65
2020-10-31 14:00:00 18.2 15 Oeste 26 Sudoeste 0 -- -- 69
2020-10-31 13:00:00 18.3 12 Sudoeste 20 Sudoeste 0 -- -- 68
2020-10-31 12:00:00 15.8 13 Sudoeste 19 Sudoeste 0 -- -- 78
2020-10-31 11:00:00 15.8 9 Sudoeste 14 Sudoeste 0 -- -- 81
2020-10-31 10:00:00 11.6 4 Sur 8 Sur 0 -- -- 100
2020-10-31 09:00:00 7.1 3 Sur 8 Sur 0 -- -- 100
2020-10-31 08:00:00 5.8 5 Sur 9 Sudoeste 0 -- -- 100
2020-10-31 07:00:00 5.6 6 Sudoeste 9 Sudoeste 0 -- -- 100
2020-10-31 06:00:00 6.2 5 Sudoeste 7 Sur 0 -- -- 100
2020-10-31 05:00:00 6.9 3 Sur 6 Sur 0 -- -- 100
2020-10-31 04:00:00 6.7 4 Sur 9 Sudoeste 0 -- -- 100
2020-10-31 03:00:00 7 3 Sur 6 Sur 0 -- -- 98
2020-10-31 02:00:00 7.5 5 Sur 7 Sur 0 -- -- 98
2020-10-31 01:00:00 8 5 Sur 8 Sur 0 -- -- 97
2020-10-31 00:00:00 8 4 Sudoeste 5 Sudoeste 0 -- -- 97
2020-10-30 23:00:00 8.9 4 Sudoeste 7 Sur 0 -- -- 95
2020-10-30 22:00:00 9 3 Sur 8 Sudeste 0 -- -- 96
2020-10-30 21:00:00 10 0 Calma 7 Este 0 -- -- 95
2020-10-30 20:00:00 11.4 5 Este 12 Este 0 -- -- 90
2020-10-30 19:00:00 11.8 9 Nordeste 16 Nordeste 0 -- -- 89
2020-10-30 18:00:00 16.5 10 Nordeste 15 Nordeste 0 -- -- 73
2020-10-30 17:00:00 21.4 4 Sudoeste 18 Oeste 0 -- -- 49
2020-10-30 16:00:00 20.9 12 Oeste 19 Oeste 0 -- -- 49
2020-10-30 15:00:00 20.5 9 Sudoeste 18 Sudoeste 0 -- -- 57
2020-10-30 14:00:00 19.1 6 Nordeste 17 Nordeste 0 -- -- 65
2020-10-30 13:00:00 16.2 12 Nordeste 16 Nordeste 0 -- -- 78
2020-10-30 12:00:00 13 13 Nordeste 15 Nordeste 0 -- -- 97
2020-10-30 11:00:00 9.7 9 Nordeste 15 Nordeste 0 -- -- 100
2020-10-30 10:00:00 6.7 12 Nordeste 16 Nordeste 0 -- -- 100
2020-10-30 09:00:00 4.3 12 Nordeste 18 Nordeste 0 -- -- 100
2020-10-30 08:00:00 2.9 12 Nordeste 15 Nordeste 0 -- -- 100
2020-10-30 07:00:00 3.1 11 Nordeste 16 Nordeste 0 -- -- 100
2020-10-30 06:00:00 3.2 11 Nordeste 15 Nordeste 0 -- -- 100
2020-10-30 05:00:00 4.2 10 Nordeste 15 Nordeste 0 -- -- 100
2020-10-30 04:00:00 5.2 12 Nordeste 14 Nordeste 0 -- -- 100
2020-10-30 03:00:00 5.8 14 Nordeste 18 Nordeste 0 -- -- 100
2020-10-30 02:00:00 5 12 Nordeste 17 Nordeste 0 -- -- 99
2020-10-30 01:00:00 5.5 13 Nordeste 17 Nordeste 0 -- -- 98
2020-10-30 00:00:00 6.6 13 Nordeste 17 Nordeste 0 -- -- 98
2020-10-29 23:00:00 6.6 13 Este 19 Este 0 -- -- 96
2020-10-29 22:00:00 7.5 13 Este 28 Este 0 -- -- 96
2020-10-29 21:00:00 7.8 14 Nordeste 17 Nordeste 0 -- -- 96
2020-10-29 20:00:00 7.9 11 Nordeste 14 Nordeste 0 -- -- 96
2020-10-29 19:00:00 9 9 Nordeste 10 Nordeste 0 -- -- 88
2020-10-29 18:00:00 17.9 3 Sudeste 9 Sur 0 -- -- 57
2020-10-29 17:00:00 16.9 5 Sur 13 Este 0 -- -- 59
2020-10-29 16:00:00 16.9 5 Sur 15 Sur 0 -- -- 59
2020-10-29 15:00:00 15.4 7 Sur 20 Sur 0 -- -- 66
2020-10-29 14:00:00 13.6 4 Sur 13 Sudeste 0 -- -- 71
2020-10-29 13:00:00 12.5 4 Sur 12 Sur 0 -- -- 76
2020-10-29 12:00:00 10.7 8 Sur 16 Sudeste 0 -- -- 83
2020-10-29 11:00:00 10.1 8 Sur 16 Sur 0 -- -- 94
2020-10-29 10:00:00 9 4 Sudeste 6 Este 0 -- -- 100
2020-10-29 09:00:00 7 0 Calma 9 Sudeste 0 -- -- 100
2020-10-29 08:00:00 6.2 4 Sudeste 8 Sudeste 0 -- -- 100
2020-10-29 07:00:00 5.6 4 Sur 8 Sudeste 0 -- -- 100
2020-10-29 06:00:00 4.3 6 Sudeste 9 Sudeste 0 -- -- 100
2020-10-29 05:00:00 3.7 3 Sudeste 8 Sudeste 0 -- -- 100
2020-10-29 04:00:00 3.2 5 Sudeste 6 Sudeste 0 -- -- 100
2020-10-29 03:00:00 5.4 3 Nordeste 6 Sudeste 0 -- -- 100
2020-10-29 02:00:00 4.9 0 Calma 5 Sudeste 0 -- -- 100
2020-10-29 01:00:00 4.8 3 Sur 7 Sur 0 -- -- 100
2020-10-29 00:00:00 5.8 4 Sur 7 Sudeste 0 -- -- 100
2020-10-28 23:00:00 5 3 Sur 9 Sudoeste 0 -- -- 100
2020-10-28 22:00:00 6.2 4 Sudoeste 10 Sur 0 -- -- 100
2020-10-28 21:00:00 7.8 3 Sudoeste 6 Oeste 0 -- -- 100
2020-10-28 20:00:00 8.9 3 Noroeste 15 Oeste 0 -- -- 96
2020-10-28 19:00:00 10.2 11 Oeste 18 Oeste 0 -- -- 94
2020-10-28 18:00:00 13.2 10 Oeste 25 Oeste 0 -- -- 81
2020-10-28 17:00:00 13.3 16 Oeste 28 Oeste 0 -- -- 82
2020-10-28 16:00:00 13.3 21 Oeste 34 Oeste 0 -- -- 87
2020-10-28 15:00:00 13 18 Oeste 23 Oeste 0 -- -- 91
2020-10-28 14:00:00 13.6 15 Oeste 22 Oeste 0 -- -- 91
2020-10-28 13:00:00 12.7 9 Noroeste 23 Oeste 0 -- -- 96
2020-10-28 12:00:00 12.5 14 Sudoeste 22 Oeste 0 -- -- 95
2020-10-28 11:00:00 11.7 10 Oeste 17 Oeste 0 -- -- 99
2020-10-28 10:00:00 11 12 Oeste 19 Oeste 0.2 -- -- 100
2020-10-28 09:00:00 10.8 13 Sudoeste 24 Sudoeste 0 -- -- 100
2020-10-28 08:00:00 10.5 15 Sudoeste 31 Sudoeste 0 -- -- 100
2020-10-28 07:00:00 10.5 15 Sudoeste 26 Sudoeste 0 -- -- 100
2020-10-28 06:00:00 10.5 16 Sudoeste 32 Sudoeste 0 -- -- 100
2020-10-28 05:00:00 10.5 15 Sudoeste 28 Sudoeste 0 -- -- 100
2020-10-28 04:00:00 10.4 18 Sudoeste 28 Sudoeste 0 -- -- 100
2020-10-28 03:00:00 10.2 21 Sudoeste 37 Sudoeste 0.4 -- -- 100
2020-10-28 02:00:00 10.1 19 Sudoeste 28 Sur 0 -- -- 100
2020-10-28 01:00:00 9.9 22 Sudoeste 35 Sudoeste 0 -- -- 99
2020-10-28 00:00:00 9.9 22 Sudoeste 32 Sudoeste 0.2 -- -- 98
2020-10-27 23:00:00 9.8 19 Sudoeste 32 Sudoeste 0 -- -- 98
2020-10-27 22:00:00 9.7 23 Sudoeste 33 Sudoeste 0 -- -- 97
2020-10-27 21:00:00 10.1 20 Sudoeste 37 Sudoeste 0 -- -- 94
2020-10-27 20:00:00 9.9 24 Sudoeste 34 Sudoeste 0 -- -- 95
2020-10-27 19:00:00 9.9 26 Sudoeste 39 Sudoeste 0 -- -- 94
2020-10-27 18:00:00 10.3 28 Sudoeste 42 Sudoeste 0 -- -- 91
2020-10-27 17:00:00 10.5 26 Sudoeste 38 Oeste 0 -- -- 90
2020-10-27 16:00:00 10.6 25 Sudoeste 42 Sudoeste 0.4 -- -- 87
2020-10-27 15:00:00 11.1 24 Sudoeste 43 Sudoeste 0 -- -- 81
2020-10-27 14:00:00 11.1 26 Sudoeste 46 Sudoeste 0 -- -- 80
2020-10-27 13:00:00 10.8 25 Oeste 38 Oeste 0 -- -- 80
2020-10-27 12:00:00 9.7 24 Oeste 49 Sudoeste 0 -- -- 81
2020-10-27 11:00:00 9.1 25 Oeste 36 Sudoeste 0 -- -- 88
2020-10-27 10:00:00 8 20 Sudoeste 36 Sudoeste 0 -- -- 93
2020-10-27 09:00:00 7.3 21 Sudoeste 32 Sudoeste 0 -- -- 96
2020-10-27 08:00:00 6.8 19 Sudoeste 28 Sudoeste 0 -- -- 96
2020-10-27 07:00:00 6.7 19 Sudoeste 38 Oeste 0 -- -- 97
2020-10-27 06:00:00 6.3 18 Sudoeste 33 Sudoeste 0 -- -- 97
2020-10-27 05:00:00 6.1 17 Sudoeste 24 Sudoeste 0 -- -- 96
2020-10-27 04:00:00 6 16 Sudoeste 25 Sudoeste 0 -- -- 95
2020-10-27 03:00:00 5.9 19 Sudoeste 25 Sudoeste 0 -- -- 94
2020-10-27 02:00:00 5.3 14 Sudoeste 19 Sudoeste 0 -- -- 96
2020-10-27 01:00:00 5.6 13 Sudoeste 21 Sudoeste 0 -- -- 94
2020-10-27 00:00:00 6.6 16 Oeste 22 Sudoeste 0 -- -- 93